Time;durP1;ratioP1;P1;durP2;ratioP2;P2;SDS_P1;SDS_P2;PMS_P1;PMS_P2;Temp;Humidity;BMP_temperature;BMP_pressure;BME280_temperature;BME280_humidity;BME280_pressure;Samples;Min_cycle;Max_cycle;Signal;HPM_P1;HPM_P2
2021/03/28 00:01:55;;;;;;;30.98;18.38;;;;;;;;;;5075066;28;20166;-77
2021/03/28 00:04:23;;;;;;;21.40;12.68;;;;;;;;;;5074286;28;20704;-77
2021/03/28 00:06:49;;;;;;;18.58;9.80;;;;;;;;;;5074843;28;20033;-77
2021/03/28 00:09:17;;;;;;;20.60;9.10;;;;;;;;;;5074798;28;20121;-76
2021/03/28 00:12:02;;;;;;;18.20;9.48;;;;;;;;;;5074414;28;20046;-77
2021/03/28 00:14:43;;;;;;;16.63;8.15;;;;;;;;;;5074463;28;20059;-76
2021/03/28 00:17:16;;;;;;;22.13;12.95;;;;;;;;;;5056506;28;20025;-76
2021/03/28 00:19:42;;;;;;;26.55;14.77;;;;;;;;;;5074099;28;20016;-76
2021/03/28 00:22:18;;;;;;;25.45;14.70;;;;;;;;;;5056421;28;20047;-76
2021/03/28 00:24:51;;;;;;;17.83;9.85;;;;;;;;;;5073992;28;20028;-76
2021/03/28 00:27:20;;;;;;;14.10;8.43;;;;;;;;;;5074175;28;20044;-76
2021/03/28 00:29:55;;;;;;;13.48;6.85;;;;;;;;;;5056382;28;20016;-77
2021/03/28 00:32:42;;;;;;;15.77;7.30;;;;;;;;;;5073766;28;20028;-77
2021/03/28 00:35:10;;;;;;;12.50;6.63;;;;;;;;;;5055891;28;20550;-77
2021/03/28 00:37:37;;;;;;;12.55;6.50;;;;;;;;;;5056252;28;20028;-79
2021/03/28 00:40:09;;;;;;;13.68;6.97;;;;;;;;;;5073718;28;20481;-78
2021/03/28 00:42:44;;;;;;;11.02;6.28;;;;;;;;;;5074121;28;20028;-76
2021/03/28 00:45:14;;;;;;;13.25;5.95;;;;;;;;;;5074060;28;20021;-77
2021/03/28 00:47:42;;;;;;;16.27;7.65;;;;;;;;;;5073965;28;20032;-77
2021/03/28 00:50:11;;;;;;;16.75;7.85;;;;;;;;;;5074143;28;20016;-78
2021/03/28 00:52:41;;;;;;;16.05;7.50;;;;;;;;;;5073589;28;20415;-77
2021/03/28 00:55:14;;;;;;;14.18;7.90;;;;;;;;;;5074119;28;20134;-79
2021/03/28 00:57:41;;;;;;;22.33;9.18;;;;;;;;;;5073819;28;20107;-78
2021/03/28 01:00:36;;;;;;;15.85;9.35;;;;;;;;;;5073346;28;20025;-77
2021/03/28 01:03:26;;;;;;;24.10;12.73;;;;;;;;;;5073631;28;20021;-77
2021/03/28 01:05:54;;;;;;;23.40;13.45;;;;;;;;;;5055694;28;20024;-77
2021/03/28 01:08:22;;;;;;;20.45;11.77;;;;;;;;;;5055298;28;20493;-76
2021/03/28 01:10:58;;;;;;;16.20;9.18;;;;;;;;;;5073494;28;20029;-77
2021/03/28 01:13:27;;;;;;;21.25;10.65;;;;;;;;;;5073353;28;20051;-77
2021/03/28 01:16:12;;;;;;;20.90;11.07;;;;;;;;;;5073002;28;20103;-78
2021/03/28 01:18:57;;;;;;;16.83;9.98;;;;;;;;;;5055933;28;20032;-77
2021/03/28 01:21:26;;;;;;;19.08;9.35;;;;;;;;;;5072925;28;20032;-77
2021/03/28 01:24:02;;;;;;;15.73;8.25;;;;;;;;;;5055257;28;20024;-77
2021/03/28 01:26:47;;;;;;;13.48;6.90;;;;;;;;;;5073255;28;20028;-76
2021/03/28 01:29:18;;;;;;;13.65;6.45;;;;;;;;;;5073080;28;20036;-78
2021/03/28 01:31:44;;;;;;;12.70;6.80;;;;;;;;;;5073111;28;20035;-78
2021/03/28 01:34:17;;;;;;;16.00;7.60;;;;;;;;;;5073036;28;20143;-78
2021/03/28 01:36:49;;;;;;;14.40;7.50;;;;;;;;;;5054143;28;20082;-78
2021/03/28 01:39:16;;;;;;;11.82;6.38;;;;;;;;;;5072812;28;20425;-78
2021/03/28 01:41:44;;;;;;;9.90;5.35;;;;;;;;;;5072898;28;20550;-78
2021/03/28 01:44:17;;;;;;;12.13;7.00;;;;;;;;;;5073158;28;20027;-77
2021/03/28 01:46:49;;;;;;;10.50;6.65;;;;;;;;;;5072861;28;20025;-77
2021/03/28 01:49:24;;;;;;;9.70;6.05;;;;;;;;;;5072549;28;20020;-77
2021/03/28 01:52:03;;;;;;;12.48;6.93;;;;;;;;;;5072746;28;20025;-77
2021/03/28 01:54:46;;;;;;;16.60;8.50;;;;;;;;;;5072688;28;20017;-78
2021/03/28 01:57:12;;;;;;;;;;;;;;;;;;5072766;28;20027;-78
2021/03/28 01:59:44;;;;;;;11.27;6.25;;;;;;;;;;5072608;28;19904;-78
2021/03/28 02:02:29;;;;;;;13.75;6.13;;;;;;;;;;5054684;28;20025;-77
2021/03/28 02:04:58;;;;;;;16.98;8.43;;;;;;;;;;5072345;28;20029;-77
2021/03/28 02:07:24;;;;;;;21.35;10.68;;;;;;;;;;5072502;28;20059;-77
2021/03/28 02:09:50;;;;;;;16.08;9.18;;;;;;;;;;5072716;28;20095;-78
2021/03/28 02:12:35;;;;;;;14.82;8.02;;;;;;;;;;5072799;28;20028;-77
2021/03/28 02:15:10;;;;;;;16.75;8.48;;;;;;;;;;5072508;28;20028;-77
2021/03/28 02:17:39;;;;;;;16.90;8.52;;;;;;;;;;5072008;28;20477;-77
2021/03/28 02:20:24;;;;;;;12.43;6.10;;;;;;;;;;5072469;28;20024;-77
2021/03/28 02:22:50;;;;;;;9.82;5.55;;;;;;;;;;5072503;28;20025;-77
2021/03/28 02:25:18;;;;;;;14.20;6.40;;;;;;;;;;5072081;28;20070;-77
2021/03/28 02:27:48;;;;;;;15.18;7.72;;;;;;;;;;5072282;28;20048;-77
2021/03/28 02:30:17;;;;;;;12.18;6.93;;;;;;;;;;5072736;28;20028;-77
2021/03/28 02:33:02;;;;;;;11.10;6.20;;;;;;;;;;5072289;28;20032;-78
2021/03/28 02:35:47;;;;;;;12.30;7.00;;;;;;;;;;5072178;28;20020;-78
2021/03/28 02:38:28;;;;;;;13.68;6.22;;;;;;;;;;5071849;28;20085;-78
2021/03/28 02:40:54;;;;;;;9.48;5.13;;;;;;;;;;5072910;28;20364;-77
2021/03/28 02:43:23;;;;;;;17.80;7.93;;;;;;;;;;5072385;28;20101;-77
2021/03/28 02:46:03;;;;;;;14.43;7.32;;;;;;;;;;5054015;28;20025;-77
2021/03/28 02:48:45;;;;;;;12.85;7.30;;;;;;;;;;5072805;28;20036;-77
2021/03/28 02:51:22;;;;;;;16.27;8.57;;;;;;;;;;5076450;28;20404;-77
2021/03/28 02:54:00;;;;;;;15.70;8.48;;;;;;;;;;5076132;28;20021;-78
2021/03/28 02:56:26;;;;;;;11.07;6.05;;;;;;;;;;5076055;28;20020;-78
2021/03/28 02:59:11;;;;;;;12.15;6.50;;;;;;;;;;5076054;28;20138;-78
2021/03/28 03:01:43;;;;;;;13.88;7.68;;;;;;;;;;5076284;28;20036;-77
2021/03/28 03:04:19;;;;;;;10.80;6.22;;;;;;;;;;5075964;28;20033;-77
2021/03/28 03:06:54;;;;;;;14.13;7.68;;;;;;;;;;5075583;28;20024;-77
2021/03/28 03:09:26;;;;;;;16.33;8.73;;;;;;;;;;5076110;28;20063;-77
2021/03/28 03:12:02;;;;;;;20.55;12.40;;;;;;;;;;5076206;28;20044;-77
2021/03/28 03:14:52;;;;;;;21.02;10.65;;;;;;;;;;5075495;28;20104;-77
2021/03/28 03:17:18;;;;;;;18.63;10.35;;;;;;;;;;5075797;28;20455;-77
2021/03/28 03:19:58;;;;;;;19.70;10.23;;;;;;;;;;5075788;28;20040;-77
2021/03/28 03:22:36;;;;;;;14.60;7.95;;;;;;;;;;5075293;28;20040;-76
2021/03/28 03:25:14;;;;;;;14.98;8.32;;;;;;;;;;5075670;28;20025;-77
2021/03/28 03:27:53;;;;;;;13.25;7.47;;;;;;;;;;5076696;28;20048;-77
2021/03/28 03:30:31;;;;;;;10.70;6.68;;;;;;;;;;5095948;28;20024;-77
2021/03/28 03:33:03;;;;;;;17.13;7.78;;;;;;;;;;5095942;28;20048;-78
2021/03/28 03:35:50;;;;;;;13.68;7.93;;;;;;;;;;5095221;28;20465;-78
2021/03/28 03:38:16;;;;;;;13.90;6.95;;;;;;;;;;5095774;28;20032;-78
2021/03/28 03:40:45;;;;;;;15.50;7.47;;;;;;;;;;5095531;28;20020;-77
2021/03/28 03:43:35;;;;;;;14.02;6.65;;;;;;;;;;5095583;28;20020;-77
2021/03/28 03:46:02;;;;;;;13.73;7.63;;;;;;;;;;5095477;28;20040;-76
2021/03/28 03:48:47;;;;;;;12.55;6.88;;;;;;;;;;5094916;28;20046;-76
2021/03/28 03:51:35;;;;;;;17.40;6.97;;;;;;;;;;5095401;28;20028;-77
2021/03/28 03:54:07;;;;;;;13.18;7.15;;;;;;;;;;5095278;28;20440;-77
2021/03/28 03:57:12;;;;;;;13.07;7.50;;;;;;;;;;5094818;28;20032;-77
2021/03/28 03:59:57;;;;;;;15.00;7.55;;;;;;;;;;5012349;28;20133;-77
2021/03/28 04:02:38;;;;;;;11.68;6.22;;;;;;;;;;5012672;28;20489;-77
2021/03/28 04:05:07;;;;;;;20.35;10.02;;;;;;;;;;5070314;28;20040;-76
2021/03/28 04:07:45;;;;;;;14.93;8.32;;;;;;;;;;5094799;28;20661;-77
2021/03/28 04:10:24;;;;;;;17.17;9.57;;;;;;;;;;5093332;28;20445;-77
2021/03/28 04:13:09;;;;;;;17.13;8.90;;;;;;;;;;5095087;28;20099;-76
2021/03/28 04:15:38;;;;;;;16.95;8.90;;;;;;;;;;5094910;28;20073;-76
2021/03/28 04:18:16;;;;;;;16.27;8.68;;;;;;;;;;5094384;28;20426;-76
2021/03/28 04:20:55;;;;;;;15.10;7.97;;;;;;;;;;5094649;28;20027;-76
2021/03/28 04:23:38;;;;;;;21.83;9.90;;;;;;;;;;5094899;28;20024;-76
2021/03/28 04:26:07;;;;;;;29.20;12.90;;;;;;;;;;5094712;28;20024;-77
2021/03/28 04:28:40;;;;;;;25.20;13.70;;;;;;;;;;5075583;28;20044;-76
2021/03/28 04:31:06;;;;;;;26.58;10.80;;;;;;;;;;5074100;28;20389;-76
2021/03/28 04:33:39;;;;;;;15.55;8.23;;;;;;;;;;5056193;28;20028;-77
2021/03/28 04:36:11;;;;;;;19.10;8.90;;;;;;;;;;5074275;28;20016;-77
2021/03/28 04:38:44;;;;;;;18.20;8.95;;;;;;;;;;5055863;28;20155;-76
2021/03/28 04:41:29;;;;;;;19.30;10.45;;;;;;;;;;5074252;28;20024;-77
2021/03/28 04:44:07;;;;;;;16.52;8.45;;;;;;;;;;5074376;28;20035;-76
2021/03/28 04:46:52;;;;;;;23.73;11.18;;;;;;;;;;5073671;28;20066;-77
2021/03/28 04:49:36;;;;;;;19.70;9.52;;;;;;;;;;5074118;28;20024;-77
2021/03/28 04:52:18;;;;;;;18.00;10.00;;;;;;;;;;5073439;28;20477;-76
2021/03/28 04:54:54;;;;;;;16.65;10.07;;;;;;;;;;5073690;28;20033;-76
2021/03/28 04:57:32;;;;;;;22.77;11.80;;;;;;;;;;5073566;28;20024;-76
2021/03/28 05:00:10;;;;;;;24.52;13.55;;;;;;;;;;5073337;28;20035;-76
2021/03/28 05:02:48;;;;;;;22.55;11.43;;;;;;;;;;5055684;28;20021;-76
2021/03/28 05:05:38;;;;;;;21.10;11.20;;;;;;;;;;5073558;28;20017;-76
2021/03/28 05:08:15;;;;;;;17.45;8.98;;;;;;;;;;5073217;28;20036;-76
2021/03/28 05:11:00;;;;;;;20.20;9.07;;;;;;;;;;5073574;28;20104;-76
2021/03/28 05:13:48;;;;;;;13.32;7.85;;;;;;;;;;5072940;28;20024;-76
2021/03/28 05:16:50;;;;;;;16.35;8.82;;;;;;;;;;5055538;28;20055;-76
2021/03/28 05:19:36;;;;;;;17.48;9.32;;;;;;;;;;4972378;28;20456;-75
2021/03/28 05:22:05;;;;;;;21.55;9.50;;;;;;;;;;5058750;28;20029;-75
2021/03/28 05:24:41;;;;;;;22.02;10.48;;;;;;;;;;5073115;28;20024;-75
2021/03/28 05:27:13;;;;;;;19.90;11.20;;;;;;;;;;5072572;28;20163;-76
2021/03/28 05:29:39;;;;;;;21.03;11.77;;;;;;;;;;5073363;28;20024;-76
2021/03/28 05:32:18;;;;;;;20.92;10.38;;;;;;;;;;5073057;28;20253;-77
2021/03/28 05:34:44;;;;;;;20.35;11.13;;;;;;;;;;5072628;28;20017;-77
2021/03/28 05:37:22;;;;;;;17.73;9.40;;;;;;;;;;5073242;28;20500;-77
2021/03/28 05:40:01;;;;;;;18.02;8.65;;;;;;;;;;5072920;28;20024;-76
2021/03/28 05:42:33;;;;;;;16.83;9.95;;;;;;;;;;5072516;28;20090;-77
2021/03/28 05:45:17;;;;;;;16.70;7.88;;;;;;;;;;5072889;28;20389;-77
2021/03/28 05:48:02;;;;;;;17.77;8.77;;;;;;;;;;5072946;28;20067;-78
2021/03/28 05:50:47;;;;;;;16.90;8.70;;;;;;;;;;5055165;28;20024;-77
2021/03/28 05:53:32;;;;;;;17.15;8.23;;;;;;;;;;5072869;28;20028;-77
2021/03/28 05:56:07;;;;;;;14.80;7.68;;;;;;;;;;5072673;28;20024;-78
2021/03/28 05:58:42;;;;;;;15.35;9.05;;;;;;;;;;5072636;28;20362;-78
2021/03/28 06:01:27;;;;;;;20.25;9.05;;;;;;;;;;5072739;28;20318;-78
2021/03/28 06:04:02;;;;;;;15.48;9.48;;;;;;;;;;5072354;28;20485;-77
2021/03/28 06:06:43;;;;;;;16.90;9.85;;;;;;;;;;5072529;28;20473;-78
2021/03/28 06:09:19;;;;;;;17.05;9.05;;;;;;;;;;5072225;28;20032;-78
2021/03/28 06:12:08;;;;;;;16.50;8.63;;;;;;;;;;5054746;28;20023;-78
2021/03/28 06:14:53;;;;;;;14.90;8.77;;;;;;;;;;5072693;28;20029;-78
2021/03/28 06:17:19;;;;;;;37.33;23.88;;;;;;;;;;5072141;28;20492;-76
2021/03/28 06:20:17;;;;;;;34.17;18.40;;;;;;;;;;5072403;28;20366;-77
2021/03/28 06:22:53;;;;;;;30.27;16.65;;;;;;;;;;5072272;28;20020;-76
2021/03/28 06:25:19;;;;;;;142.60;75.20;;;;;;;;;;5072321;28;20025;-77
2021/03/28 06:28:04;;;;;;;36.55;21.17;;;;;;;;;;5072208;28;20124;-77
2021/03/28 06:30:49;;;;;;;41.30;22.98;;;;;;;;;;5054228;28;20028;-76
2021/03/28 06:33:26;;;;;;;30.20;17.15;;;;;;;;;;5072417;28;20028;-77
2021/03/28 06:36:03;;;;;;;28.40;14.70;;;;;;;;;;5072402;28;20029;-76
2021/03/28 06:38:52;;;;;;;21.52;12.73;;;;;;;;;;5053839;28;20544;-77
2021/03/28 06:41:39;;;;;;;24.00;15.00;;;;;;;;;;5071814;28;20317;-78
2021/03/28 06:44:08;;;;;;;12.82;7.78;;;;;;;;;;5072150;28;20377;-76
2021/03/28 06:46:53;;;;;;;13.65;6.90;;;;;;;;;;5071936;28;20028;-76
2021/03/28 06:49:37;;;;;;;19.17;11.98;;;;;;;;;;5072294;28;20036;-77
2021/03/28 06:52:04;;;;;;;18.42;10.57;;;;;;;;;;5072053;28;20128;-78
2021/03/28 06:54:42;;;;;;;16.25;9.57;;;;;;;;;;5072168;28;20031;-75
2021/03/28 06:57:08;;;;;;;21.38;15.13;;;;;;;;;;5072447;28;20025;-77
2021/03/28 06:59:49;;;;;;;16.17;10.27;;;;;;;;;;5071967;28;20033;-76
2021/03/28 07:02:21;;;;;;;11.70;6.57;;;;;;;;;;5072248;28;20047;-77
2021/03/28 07:04:51;;;;;;;11.07;6.40;;;;;;;;;;5072144;28;20016;-76
2021/03/28 07:07:20;;;;;;;12.68;7.72;;;;;;;;;;5053693;28;20035;-76
2021/03/28 07:10:05;;;;;;;17.98;12.48;;;;;;;;;;5072103;28;20032;-77
2021/03/28 07:12:34;;;;;;;15.50;9.07;;;;;;;;;;5071726;28;20091;-76
2021/03/28 07:15:13;;;;;;;15.93;9.32;;;;;;;;;;5072028;28;20025;-76
2021/03/28 07:17:58;;;;;;;14.77;7.13;;;;;;;;;;5054092;28;20411;-77
2021/03/28 07:20:45;;;;;;;14.77;9.45;;;;;;;;;;5071670;28;20024;-75
2021/03/28 07:23:14;;;;;;;16.58;9.02;;;;;;;;;;5004993;28;20029;-75
2021/03/28 07:25:44;;;;;;;12.45;6.93;;;;;;;;;;5054079;28;20035;-77
2021/03/28 07:28:28;;;;;;;14.00;8.32;;;;;;;;;;5071691;28;20044;-77
2021/03/28 07:31:08;;;;;;;16.58;8.57;;;;;;;;;;5072970;28;20381;-78
2021/03/28 07:33:40;;;;;;;18.80;12.48;;;;;;;;;;5072109;28;20048;-77
2021/03/28 07:36:06;;;;;;;17.33;9.85;;;;;;;;;;5058704;28;20024;-76
2021/03/28 07:38:51;;;;;;;19.08;9.63;;;;;;;;;;5075732;28;20528;-75
2021/03/28 07:41:36;;;;;;;16.75;10.02;;;;;;;;;;5075067;28;20060;-76
2021/03/28 07:44:17;;;;;;;17.15;8.50;;;;;;;;;;5075190;28;20028;-75
2021/03/28 07:46:59;;;;;;;16.80;7.97;;;;;;;;;;5057247;28;20519;-76
2021/03/28 07:49:34;;;;;;;20.33;11.90;;;;;;;;;;5075028;28;20032;-76
2021/03/28 07:52:16;;;;;;;16.77;9.85;;;;;;;;;;5057415;28;20556;-76
2021/03/28 07:54:53;;;;;;;19.85;10.45;;;;;;;;;;5074631;28;20017;-76
2021/03/28 07:57:26;;;;;;;18.83;11.13;;;;;;;;;;5075140;28;20033;-76
2021/03/28 08:00:08;;;;;;;16.00;9.52;;;;;;;;;;5075115;28;20020;-75
2021/03/28 08:02:53;;;;;;;14.93;7.82;;;;;;;;;;5074899;28;20025;-75
2021/03/28 08:05:22;;;;;;;17.75;9.88;;;;;;;;;;5074945;28;20031;-76
2021/03/28 08:07:53;;;;;;;14.10;7.97;;;;;;;;;;5074731;28;20051;-76
2021/03/28 08:10:44;;;;;;;18.10;9.90;;;;;;;;;;5074782;28;20075;-76
2021/03/28 08:13:29;;;;;;;16.58;9.32;;;;;;;;;;5074988;28;20027;-75
2021/03/28 08:19:52;;;;;;;17.88;9.48;;;;;;;;;;5069724;28;20392;-75
2021/03/28 08:24:09;;;;;;;20.77;11.00;;;;;;;;;;5069639;28;20376;-75
2021/03/28 08:28:40;;;;;;;15.95;9.73;;;;;;;;;;5069836;28;20376;-74
2021/03/28 08:31:25;;;;;;;13.77;8.50;;;;;;;;;;5068407;28;20414;-76
2021/03/28 08:35:02;;;;;;;14.23;8.90;;;;;;;;;;5070076;28;20384;-77
2021/03/28 08:37:40;;;;;;;18.02;9.98;;;;;;;;;;5070074;28;20090;-77
2021/03/28 08:40:25;;;;;;;17.52;10.35;;;;;;;;;;5069738;28;20025;-76
2021/03/28 08:44:45;;;;;;;17.60;10.05;;;;;;;;;;5069413;28;20391;-76
2021/03/28 08:47:30;;;;;;;19.45;10.25;;;;;;;;;;5069880;28;20028;-76
2021/03/28 08:52:24;;;;;;;12.10;6.90;;;;;;;;;;5110430;27;20384;-76
2021/03/28 08:54:53;;;;;;;14.52;7.97;;;;;;;;;;5111024;28;20077;-77
2021/03/28 08:57:25;;;;;;;14.13;7.15;;;;;;;;;;5110476;28;20454;-77
2021/03/28 09:00:02;;;;;;;13.27;7.50;;;;;;;;;;5109939;28;20487;-77
2021/03/28 09:02:47;;;;;;;14.70;6.45;;;;;;;;;;5110162;28;20099;-76
2021/03/28 09:05:18;;;;;;;12.70;7.35;;;;;;;;;;5108505;28;20031;-76
2021/03/28 09:07:50;;;;;;;10.77;6.68;;;;;;;;;;5110126;28;20040;-76
2021/03/28 09:10:29;;;;;;;9.53;5.80;;;;;;;;;;5110246;28;20063;-76
2021/03/28 09:12:56;;;;;;;11.20;5.72;;;;;;;;;;5109660;28;20024;-76
2021/03/28 09:15:32;;;;;;;21.05;6.38;;;;;;;;;;5109837;28;20024;-77
2021/03/28 09:17:58;;;;;;;15.85;7.32;;;;;;;;;;5109952;28;20070;-77
2021/03/28 09:20:43;;;;;;;14.30;6.10;;;;;;;;;;5109441;28;20415;-77
2021/03/28 09:25:10;;;;;;;11.43;6.43;;;;;;;;;;5070347;27;20895;-77
2021/03/28 09:27:59;;;;;;;12.85;7.25;;;;;;;;;;5069897;28;20112;-76
2021/03/28 09:30:28;;;;;;;15.20;6.88;;;;;;;;;;5070015;28;20096;-77
2021/03/28 09:36:10;;;;;;;9.95;6.00;;;;;;;;;;5070025;28;20437;-78
2021/03/28 09:38:48;;;;;;;16.00;6.10;;;;;;;;;;5071181;28;20028;-77
2021/03/28 09:41:38;;;;;;;15.98;6.55;;;;;;;;;;5070133;28;20012;-75
2021/03/28 09:44:07;;;;;;;12.07;7.03;;;;;;;;;;5069855;28;20025;-76
2021/03/28 09:46:39;;;;;;;11.55;7.00;;;;;;;;;;5069530;28;20049;-76
2021/03/28 09:49:40;;;;;;;11.48;6.72;;;;;;;;;;5069330;28;20420;-76
2021/03/28 09:52:27;;;;;;;14.52;6.90;;;;;;;;;;5047211;28;20033;-76
2021/03/28 09:55:12;;;;;;;19.08;6.13;;;;;;;;;;5067637;28;20044;-77
2021/03/28 09:57:50;;;;;;;11.13;5.55;;;;;;;;;;5069494;28;20054;-77
2021/03/28 10:00:25;;;;;;;10.48;5.93;;;;;;;;;;5069550;28;20017;-77
2021/03/28 10:03:00;;;;;;;15.02;6.95;;;;;;;;;;5067532;28;20105;-77
2021/03/28 10:06:37;;;;;;;14.07;6.57;;;;;;;;;;5071717;28;20452;-78
2021/03/28 10:09:16;;;;;;;11.35;7.18;;;;;;;;;;5070300;28;20024;-76
2021/03/28 10:11:49;;;;;;;11.45;6.28;;;;;;;;;;5069858;28;20054;-77
2021/03/28 10:14:18;;;;;;;13.95;9.05;;;;;;;;;;5069717;28;20060;-77
2021/03/28 10:18:17;;;;;;;14.15;6.30;;;;;;;;;;5070413;28;20388;-78
2021/03/28 10:21:02;;;;;;;11.77;6.32;;;;;;;;;;5060026;28;20110;-78
2021/03/28 10:25:11;;;;;;;16.08;6.63;;;;;;;;;;5069698;28;20429;-76
2021/03/28 10:27:49;;;;;;;10.55;7.32;;;;;;;;;;5069718;28;20025;-76
2021/03/28 10:30:28;;;;;;;11.00;5.90;;;;;;;;;;5068287;28;20021;-76
2021/03/28 10:33:52;;;;;;;10.27;6.65;;;;;;;;;;5069638;28;20392;-76
2021/03/28 10:36:28;;;;;;;12.95;7.35;;;;;;;;;;5069374;28;20538;-77
2021/03/28 10:39:23;;;;;;;9.85;5.32;;;;;;;;;;5069976;28;20102;-76
2021/03/28 10:41:49;;;;;;;11.52;6.70;;;;;;;;;;5050088;28;20044;-77
2021/03/28 10:44:15;;;;;;;11.50;6.80;;;;;;;;;;5069279;28;20027;-76
2021/03/28 10:47:00;;;;;;;9.52;6.10;;;;;;;;;;5069424;28;20543;-76
2021/03/28 10:49:44;;;;;;;8.93;6.30;;;;;;;;;;5069826;27;20433;-76
2021/03/28 10:52:29;;;;;;;11.05;6.93;;;;;;;;;;5069374;28;20496;-76
2021/03/28 10:55:14;;;;;;;10.80;6.47;;;;;;;;;;5068294;28;20032;-77
2021/03/28 10:58:00;;;;;;;14.15;8.40;;;;;;;;;;5068962;28;20267;-77
2021/03/28 11:01:37;;;;;;;17.50;8.13;;;;;;;;;;5069782;28;20433;-76
2021/03/28 11:04:19;;;;;;;14.05;7.20;;;;;;;;;;5069599;28;20583;-77
2021/03/28 11:07:31;;;;;;;15.05;8.75;;;;;;;;;;5069700;28;20895;-77
2021/03/28 11:10:00;;;;;;;15.55;9.15;;;;;;;;;;5069825;28;20539;-77
2021/03/28 11:12:41;;;;;;;15.25;9.32;;;;;;;;;;5069440;28;20052;-76
2021/03/28 11:15:13;;;;;;;14.35;8.05;;;;;;;;;;5069592;28;20024;-77
2021/03/28 11:17:54;;;;;;;16.97;9.87;;;;;;;;;;5069639;28;20465;-77
2021/03/28 11:21:56;;;;;;;15.27;8.48;;;;;;;;;;5069964;28;20799;-78
2021/03/28 11:24:42;;;;;;;11.60;6.93;;;;;;;;;;5068373;28;20474;-77
2021/03/28 11:27:32;;;;;;;11.02;7.63;;;;;;;;;;5069115;28;20029;-76
2021/03/28 11:30:04;;;;;;;11.80;7.40;;;;;;;;;;5067007;28;20213;-76
2021/03/28 11:32:33;;;;;;;11.82;7.13;;;;;;;;;;5069643;28;20024;-76
2021/03/28 11:35:05;;;;;;;11.90;6.90;;;;;;;;;;5069450;28;20016;-77
2021/03/28 11:37:31;;;;;;;12.77;7.32;;;;;;;;;;5069549;28;20029;-77
2021/03/28 11:40:16;;;;;;;12.07;7.47;;;;;;;;;;5069955;28;20037;-77
2021/03/28 11:42:43;;;;;;;12.05;7.95;;;;;;;;;;5071302;28;20369;-78
2021/03/28 11:45:28;;;;;;;16.30;9.13;;;;;;;;;;5070994;28;20405;-77
2021/03/28 11:47:55;;;;;;;14.00;8.32;;;;;;;;;;5068946;28;20052;-76
2021/03/28 11:54:31;;;;;;;13.40;8.00;;;;;;;;;;5072842;28;20360;-77
2021/03/28 11:56:57;;;;;;;13.82;8.40;;;;;;;;;;5069972;28;20032;-77
2021/03/28 11:59:25;;;;;;;9.85;7.60;;;;;;;;;;5069665;28;20035;-77
2021/03/28 12:01:58;;;;;;;12.65;6.85;;;;;;;;;;5069260;28;20017;-77
2021/03/28 12:04:32;;;;;;;15.13;8.95;;;;;;;;;;5069418;28;20024;-76
2021/03/28 12:07:13;;;;;;;13.35;7.82;;;;;;;;;;5069345;28;20045;-76
2021/03/28 12:09:40;;;;;;;21.80;10.82;;;;;;;;;;5069324;28;20075;-77
2021/03/28 12:12:48;;;;;;;10.30;6.43;;;;;;;;;;5112594;27;20722;-78
2021/03/28 12:15:33;;;;;;;11.35;5.65;;;;;;;;;;5110903;28;20023;-76
2021/03/28 12:18:17;;;;;;;13.85;7.53;;;;;;;;;;5110398;28;20028;-77
2021/03/28 12:20:43;;;;;;;11.15;7.07;;;;;;;;;;5110132;28;20472;-77
2021/03/28 12:23:23;;;;;;;14.02;6.95;;;;;;;;;;5109821;28;20048;-76
2021/03/28 12:26:09;;;;;;;12.57;8.00;;;;;;;;;;5110378;28;20491;-76
2021/03/28 12:28:50;;;;;;;11.23;6.05;;;;;;;;;;5096136;28;20025;-77
2021/03/28 12:31:28;;;;;;;19.05;8.25;;;;;;;;;;5109939;28;20031;-78
2021/03/28 12:34:13;;;;;;;14.82;7.93;;;;;;;;;;5110152;28;20024;-78
2021/03/28 12:36:57;;;;;;;12.48;6.65;;;;;;;;;;5109360;28;20031;-78
2021/03/28 12:39:31;;;;;;;12.90;7.50;;;;;;;;;;5109810;28;20495;-77
2021/03/28 12:42:16;;;;;;;14.15;9.13;;;;;;;;;;5108414;28;20023;-77
2021/03/28 12:44:43;;;;;;;13.60;8.50;;;;;;;;;;5109422;28;20027;-77
2021/03/28 12:47:15;;;;;;;13.40;7.65;;;;;;;;;;5109809;28;20020;-77
2021/03/28 12:49:43;;;;;;;12.55;7.38;;;;;;;;;;5109854;28;20020;-77
2021/03/28 12:52:12;;;;;;;12.70;8.15;;;;;;;;;;5107577;28;20039;-78
2021/03/28 12:54:52;;;;;;;12.02;8.60;;;;;;;;;;5109630;28;20060;-77
2021/03/28 12:57:37;;;;;;;11.93;8.45;;;;;;;;;;5109611;28;20020;-78
2021/03/28 13:00:06;;;;;;;12.07;8.88;;;;;;;;;;5108391;28;20115;-78
2021/03/28 13:02:34;;;;;;;13.95;9.07;;;;;;;;;;5108125;28;20034;-78
2021/03/28 13:05:33;;;;;;;18.33;9.52;;;;;;;;;;5069203;28;20398;-76
2021/03/28 13:08:16;;;;;;;13.90;8.05;;;;;;;;;;5069751;28;20060;-77
2021/03/28 13:10:43;;;;;;;13.88;8.23;;;;;;;;;;5069950;28;20089;-77
2021/03/28 13:13:15;;;;;;;11.52;8.30;;;;;;;;;;5069110;28;20021;-77
2021/03/28 13:15:41;;;;;;;13.40;8.00;;;;;;;;;;5069656;28;20100;-76
2021/03/28 13:18:25;;;;;;;12.30;8.00;;;;;;;;;;5067759;28;20025;-77
2021/03/28 13:20:54;;;;;;;14.23;7.70;;;;;;;;;;5069464;28;20086;-77
2021/03/28 13:23:40;;;;;;;10.25;7.47;;;;;;;;;;5069207;28;20074;-76
2021/03/28 13:26:20;;;;;;;12.90;8.27;;;;;;;;;;5068929;28;20032;-76
2021/03/28 13:29:35;;;;;;;15.75;8.60;;;;;;;;;;5069408;28;20017;-76
2021/03/28 13:32:02;;;;;;;15.70;8.38;;;;;;;;;;5047097;28;20052;-77
2021/03/28 13:34:31;;;;;;;18.65;9.13;;;;;;;;;;5066460;28;20037;-78
2021/03/28 13:36:57;;;;;;;22.77;10.05;;;;;;;;;;5069176;28;20017;-77
2021/03/28 13:39:24;;;;;;;15.50;10.50;;;;;;;;;;5068702;28;20473;-76
2021/03/28 13:41:59;;;;;;;13.52;8.90;;;;;;;;;;5069000;28;20347;-77
2021/03/28 13:44:30;;;;;;;14.93;9.32;;;;;;;;;;5069182;28;20120;-77
2021/03/28 13:46:58;;;;;;;12.70;8.85;;;;;;;;;;5068497;28;20067;-76
2021/03/28 13:49:29;;;;;;;20.95;11.70;;;;;;;;;;5069039;28;20146;-77
2021/03/28 13:52:06;;;;;;;23.33;13.73;;;;;;;;;;5068839;28;20079;-77
2021/03/28 13:54:32;;;;;;;16.85;11.90;;;;;;;;;;5067089;28;20380;-77
2021/03/28 13:56:59;;;;;;;16.33;10.30;;;;;;;;;;5068680;28;20031;-77
2021/03/28 13:59:26;;;;;;;16.05;9.82;;;;;;;;;;5068810;28;20488;-78
2021/03/28 14:01:58;;;;;;;11.88;8.10;;;;;;;;;;5068708;28;20017;-77
2021/03/28 14:04:28;;;;;;;15.95;10.00;;;;;;;;;;5068369;28;20049;-77
2021/03/28 14:07:06;;;;;;;14.30;9.50;;;;;;;;;;5068700;28;20484;-77
2021/03/28 14:09:38;;;;;;;22.00;11.27;;;;;;;;;;5068581;28;20393;-77
2021/03/28 14:12:07;;;;;;;15.90;10.40;;;;;;;;;;5068830;28;20028;-77
2021/03/28 14:14:35;;;;;;;15.30;8.93;;;;;;;;;;5066681;28;20024;-77
2021/03/28 14:17:22;;;;;;;14.02;9.18;;;;;;;;;;5055295;28;20475;-77
2021/03/28 14:19:49;;;;;;;14.98;10.00;;;;;;;;;;5055359;28;20082;-77
2021/03/28 14:22:38;;;;;;;25.88;16.60;;;;;;;;;;5054973;28;20155;-75
2021/03/28 14:25:07;;;;;;;16.17;12.40;;;;;;;;;;5055159;28;20033;-77
2021/03/28 14:27:37;;;;;;;14.10;9.70;;;;;;;;;;5055639;28;20490;-77
2021/03/28 14:30:12;;;;;;;17.45;10.88;;;;;;;;;;5055330;28;20029;-78
2021/03/28 14:32:49;;;;;;;14.93;10.52;;;;;;;;;;5055421;28;20100;-79
2021/03/28 14:35:26;;;;;;;15.85;10.00;;;;;;;;;;5055241;28;20078;-79
2021/03/28 14:38:04;;;;;;;19.55;13.82;;;;;;;;;;5055140;28;20029;-79
2021/03/28 14:40:42;;;;;;;21.25;13.77;;;;;;;;;;5055379;28;20027;-77
2021/03/28 14:43:35;;;;;;;18.65;12.82;;;;;;;;;;5055099;28;20070;-77
2021/03/28 14:46:24;;;;;;;18.25;12.60;;;;;;;;;;5055563;28;20033;-78
2021/03/28 14:49:00;;;;;;;17.58;11.95;;;;;;;;;;5053941;28;20496;-77
2021/03/28 14:51:49;;;;;;;16.70;11.52;;;;;;;;;;5054434;28;20029;-78
2021/03/28 14:54:35;;;;;;;16.83;11.88;;;;;;;;;;5054639;28;20035;-78
2021/03/28 14:57:04;;;;;;;19.40;13.63;;;;;;;;;;5052703;28;20028;-78
2021/03/28 14:59:37;;;;;;;20.23;13.00;;;;;;;;;;5054344;28;20041;-78
2021/03/28 15:02:22;;;;;;;18.02;12.02;;;;;;;;;;5054535;28;20029;-77
2021/03/28 15:05:06;;;;;;;21.35;14.02;;;;;;;;;;5052797;28;20508;-77
2021/03/28 15:07:46;;;;;;;20.95;13.07;;;;;;;;;;5054341;28;20025;-77
2021/03/28 15:10:35;;;;;;;20.08;15.52;;;;;;;;;;5055236;28;20176;-78
2021/03/28 15:13:04;;;;;;;22.00;13.52;;;;;;;;;;5043951;28;20510;-77
2021/03/28 15:15:33;;;;;;;16.60;12.35;;;;;;;;;;5054041;28;20021;-77
2021/03/28 15:18:18;;;;;;;18.27;14.20;;;;;;;;;;5053700;28;20029;-78
2021/03/28 15:20:54;;;;;;;26.73;16.55;;;;;;;;;;5054578;28;20061;-78
2021/03/28 15:23:46;;;;;;;28.13;17.25;;;;;;;;;;5054651;28;20024;-78
2021/03/28 15:26:33;;;;;;;27.80;18.20;;;;;;;;;;5050821;28;20041;-78
2021/03/28 15:29:18;;;;;;;22.02;14.57;;;;;;;;;;5055137;28;20254;-78
2021/03/28 15:31:47;;;;;;;24.15;14.90;;;;;;;;;;5053767;28;20021;-77
2021/03/28 15:34:27;;;;;;;21.80;13.32;;;;;;;;;;5053830;28;20478;-77
2021/03/28 15:37:05;;;;;;;21.15;14.23;;;;;;;;;;5053739;28;20048;-77
2021/03/28 15:39:50;;;;;;;21.30;14.60;;;;;;;;;;5052021;28;20047;-78
2021/03/28 15:42:24;;;;;;;20.10;14.23;;;;;;;;;;5053532;28;20481;-77
2021/03/28 15:44:53;;;;;;;20.83;14.73;;;;;;;;;;5053392;28;20047;-77
2021/03/28 15:47:31;;;;;;;23.65;15.27;;;;;;;;;;5053522;28;20446;-78
2021/03/28 15:50:01;;;;;;;18.35;13.73;;;;;;;;;;5053798;28;20033;-78
2021/03/28 15:52:34;;;;;;;21.48;16.10;;;;;;;;;;5053643;28;20021;-78